createdAt,value
2018-06-02T00:00:29.529Z,1004.76
2018-06-02T00:01:29.501Z,1004.79
2018-06-02T00:02:29.478Z,1004.80
2018-06-02T00:03:29.454Z,1004.77
2018-06-02T00:04:29.430Z,1004.76
2018-06-02T00:05:29.401Z,1004.78
2018-06-02T00:06:29.383Z,1004.77
2018-06-02T00:07:29.353Z,1004.76
2018-06-02T00:08:29.331Z,1004.78
2018-06-02T00:09:29.310Z,1004.81
2018-06-02T00:10:29.279Z,1004.82
2018-06-02T00:11:29.254Z,1004.81
2018-06-02T00:12:29.233Z,1004.79
2018-06-02T00:13:29.211Z,1004.85
2018-06-02T00:14:29.184Z,1004.85
2018-06-02T00:15:29.153Z,1004.83
2018-06-02T00:16:29.136Z,1004.83
2018-06-02T00:17:29.110Z,1004.82
2018-06-02T00:18:29.086Z,1004.80
2018-06-02T00:19:29.062Z,1004.80
2018-06-02T00:20:29.038Z,1004.82
2018-06-02T00:21:29.020Z,1004.82
2018-06-02T00:22:28.982Z,1004.81
2018-06-02T00:23:28.964Z,1004.88
2018-06-02T00:24:28.935Z,1004.79
2018-06-02T00:25:28.907Z,1004.80
2018-06-02T00:26:28.891Z,1004.78
2018-06-02T00:27:28.864Z,1004.80
2018-06-02T00:28:28.842Z,1004.77
2018-06-02T00:29:28.814Z,1004.81
2018-06-02T00:30:28.793Z,1004.77
2018-06-02T00:31:28.785Z,1004.80
2018-06-02T00:32:28.743Z,1004.76
2018-06-02T00:33:28.716Z,1004.81
2018-06-02T00:34:28.693Z,1004.80
2018-06-02T00:35:28.666Z,1004.82
2018-06-02T00:36:28.640Z,1004.79
2018-06-02T00:37:28.618Z,1004.79
2018-06-02T00:38:28.600Z,1004.80
2018-06-02T00:39:28.566Z,1004.82
2018-06-02T00:40:28.545Z,1004.83
2018-06-02T00:41:28.515Z,1004.84
2018-06-02T00:42:28.489Z,1004.80
2018-06-02T00:43:28.477Z,1004.80
2018-06-02T00:44:28.439Z,1004.84
2018-06-02T00:45:28.418Z,1004.86
2018-06-02T00:46:28.400Z,1004.82
2018-06-02T00:47:28.370Z,1004.83
2018-06-02T00:48:28.357Z,1004.80
2018-06-02T00:49:28.327Z,1004.80
2018-06-02T00:50:28.297Z,1004.76
2018-06-02T00:51:28.271Z,1004.78
2018-06-02T00:52:28.242Z,1004.76
2018-06-02T00:53:28.226Z,1004.77
2018-06-02T00:54:28.195Z,1004.76
2018-06-02T00:55:28.168Z,1004.75
2018-06-02T00:56:28.152Z,1004.73
2018-06-02T00:57:28.125Z,1004.73
2018-06-02T00:58:28.102Z,1004.73
2018-06-02T00:59:28.076Z,1004.75
2018-06-02T01:00:28.049Z,1004.77
2018-06-02T01:01:28.028Z,1004.75
2018-06-02T01:02:28.005Z,1004.79
2018-06-02T01:03:27.973Z,1004.79
2018-06-02T01:04:27.963Z,1004.76
2018-06-02T01:05:27.964Z,1004.74
2018-06-02T01:06:27.904Z,1004.76
2018-06-02T01:07:27.879Z,1004.77
2018-06-02T01:08:27.852Z,1004.75
2018-06-02T01:09:27.835Z,1004.75
2018-06-02T01:10:27.803Z,1004.75
2018-06-02T01:11:27.778Z,1004.73
2018-06-02T01:12:27.771Z,1004.75
2018-06-02T01:13:27.727Z,1004.73
2018-06-02T01:14:27.706Z,1004.72
2018-06-02T01:15:27.683Z,1004.72
2018-06-02T01:16:27.653Z,1004.69
2018-06-02T01:17:27.635Z,1004.68
2018-06-02T01:18:27.601Z,1004.69
2018-06-02T01:19:27.576Z,1004.69
2018-06-02T01:20:27.560Z,1004.70
2018-06-02T01:21:27.527Z,1004.65
2018-06-02T01:22:27.511Z,1004.68
2018-06-02T01:23:27.489Z,1004.66
2018-06-02T01:24:27.454Z,1004.66
2018-06-02T01:25:27.433Z,1004.66
2018-06-02T01:26:27.416Z,1004.67
2018-06-02T01:27:27.380Z,1004.65
2018-06-02T01:28:27.363Z,1004.65
2018-06-02T01:29:27.343Z,1004.64
2018-06-02T01:30:27.310Z,1004.65
2018-06-02T01:31:27.287Z,1004.67
2018-06-02T01:32:27.259Z,1004.66
2018-06-02T01:33:27.231Z,1004.62
2018-06-02T01:34:27.218Z,1004.61
2018-06-02T01:35:27.188Z,1004.62
2018-06-02T01:36:27.170Z,1004.60
2018-06-02T01:37:27.142Z,1004.67
2018-06-02T01:38:27.110Z,1004.58
2018-06-02T01:39:27.094Z,1004.62
2018-06-02T01:40:27.069Z,1004.57
2018-06-02T01:41:27.038Z,1004.58
2018-06-02T01:42:27.017Z,1004.57
2018-06-02T01:43:26.996Z,1004.53
2018-06-02T01:44:26.961Z,1004.61
2018-06-02T01:45:26.941Z,1004.54
2018-06-02T01:46:26.912Z,1004.55
2018-06-02T01:47:26.900Z,1004.59
2018-06-02T01:48:26.866Z,1004.61
2018-06-02T01:49:26.852Z,1004.62
2018-06-02T01:50:26.815Z,1004.60
2018-06-02T01:51:26.794Z,1004.63
2018-06-02T01:52:26.768Z,1004.59
2018-06-02T01:53:26.738Z,1004.63
2018-06-02T01:54:26.739Z,1004.59
2018-06-02T01:55:26.693Z,1004.62
2018-06-02T01:56:26.668Z,1004.63
2018-06-02T01:57:26.649Z,1004.65
2018-06-02T01:58:26.618Z,1004.58
2018-06-02T01:59:26.591Z,1004.58
2018-06-02T02:00:26.578Z,1004.58
2018-06-02T02:01:26.550Z,1004.57
2018-06-02T02:02:26.529Z,1004.61
2018-06-02T02:03:26.503Z,1004.58
2018-06-02T02:04:26.480Z,1004.63
2018-06-02T02:05:26.450Z,1004.53
2018-06-02T02:06:26.430Z,1004.56
2018-06-02T02:07:26.403Z,1004.55
2018-06-02T02:08:26.370Z,1004.59
2018-06-02T02:09:26.356Z,1004.59
2018-06-02T02:10:26.319Z,1004.58
2018-06-02T02:11:26.304Z,1004.58
2018-06-02T02:12:26.277Z,1004.62
2018-06-02T02:13:26.249Z,1004.59
2018-06-02T02:14:26.225Z,1004.59
2018-06-02T02:15:26.864Z,1004.59
2018-06-02T02:16:27.002Z,1004.61
2018-06-02T02:17:26.422Z,1004.61
2018-06-02T02:18:26.901Z,1004.59
2018-06-02T02:19:26.904Z,1004.58
2018-06-02T02:20:26.903Z,1004.58
2018-06-02T02:21:26.843Z,1004.59
2018-06-02T02:22:26.896Z,1004.54
2018-06-02T02:23:26.566Z,1004.54
2018-06-02T02:24:26.955Z,1004.55
2018-06-02T02:25:26.869Z,1004.52
2018-06-02T02:26:26.903Z,1004.50
2018-06-02T02:27:26.912Z,1004.51
2018-06-02T02:28:26.410Z,1004.51
2018-06-02T02:29:25.862Z,1004.51
2018-06-02T02:30:25.832Z,1004.56
2018-06-02T02:31:25.805Z,1004.55
2018-06-02T02:32:25.781Z,1004.55
2018-06-02T02:33:25.753Z,1004.56
2018-06-02T02:34:25.738Z,1004.60
2018-06-02T02:35:25.709Z,1004.54
2018-06-02T02:36:25.693Z,1004.57
2018-06-02T02:37:25.662Z,1004.55
2018-06-02T02:38:25.633Z,1004.53
2018-06-02T02:39:25.612Z,1004.60
2018-06-02T02:40:25.587Z,1004.56
2018-06-02T02:41:25.571Z,1004.56
2018-06-02T02:42:25.549Z,1004.57
2018-06-02T02:43:25.515Z,1004.56
2018-06-02T02:44:25.537Z,1004.57
2018-06-02T02:45:25.466Z,1004.57
2018-06-02T02:46:25.437Z,1004.56
2018-06-02T02:47:25.421Z,1004.55
2018-06-02T02:48:25.389Z,1004.59
2018-06-02T02:49:25.399Z,1004.66
2018-06-02T02:50:25.344Z,1004.62
2018-06-02T02:51:25.313Z,1004.64
2018-06-02T02:52:25.294Z,1004.61
2018-06-02T02:53:25.276Z,1004.63
2018-06-02T02:54:25.248Z,1004.65
2018-06-02T02:55:25.220Z,1004.65
2018-06-02T02:56:25.196Z,1004.64
2018-06-02T02:57:25.168Z,1004.64
2018-06-02T02:58:25.148Z,1004.64
2018-06-02T02:59:25.130Z,1004.67
2018-06-02T03:00:25.099Z,1004.67
2018-06-02T03:01:25.113Z,1004.67
2018-06-02T03:02:25.048Z,1004.67
2018-06-02T03:03:25.027Z,1004.69
2018-06-02T03:04:25.003Z,1004.67
2018-06-02T03:05:25.015Z,1004.70
2018-06-02T03:06:24.950Z,1004.68
2018-06-02T03:07:24.921Z,1004.69
2018-06-02T03:08:24.902Z,1004.69
2018-06-02T03:09:24.870Z,1004.64
2018-06-02T03:10:24.857Z,1004.68
2018-06-02T03:11:24.881Z,1004.67
2018-06-02T03:12:24.862Z,1004.70
2018-06-02T03:13:24.784Z,1004.67
2018-06-02T03:14:24.746Z,1004.66
2018-06-02T03:15:24.773Z,1004.66
2018-06-02T03:16:24.701Z,1004.66
2018-06-02T03:17:24.720Z,1004.66
2018-06-02T03:18:24.697Z,1004.64
2018-06-02T03:19:24.626Z,1004.72
2018-06-02T03:20:24.605Z,1004.69
2018-06-02T03:21:24.585Z,1004.70
2018-06-02T03:22:24.549Z,1004.70
2018-06-02T03:23:24.539Z,1004.70
2018-06-02T03:24:24.503Z,1004.69
2018-06-02T03:25:24.484Z,1004.68
2018-06-02T03:26:24.454Z,1004.67
2018-06-02T03:27:24.430Z,1004.68
2018-06-02T03:28:24.414Z,1004.73
2018-06-02T03:29:24.389Z,1004.73
2018-06-02T03:30:24.363Z,1004.69
2018-06-02T03:31:24.332Z,1004.65
2018-06-02T03:32:24.302Z,1004.67
2018-06-02T03:33:24.282Z,1004.72
2018-06-02T03:34:24.257Z,1004.69
2018-06-02T03:35:24.232Z,1004.69
2018-06-02T03:36:24.216Z,1004.68
2018-06-02T03:37:24.187Z,1004.71
2018-06-02T03:38:24.160Z,1004.66
2018-06-02T03:39:24.142Z,1004.69
2018-06-02T03:40:24.108Z,1004.70
2018-06-02T03:41:24.091Z,1004.68
2018-06-02T03:42:24.060Z,1004.72
2018-06-02T03:43:24.040Z,1004.69
2018-06-02T03:44:24.016Z,1004.71
2018-06-02T03:45:23.987Z,1004.70
2018-06-02T03:46:23.968Z,1004.68
2018-06-02T03:47:23.944Z,1004.67
2018-06-02T03:48:23.913Z,1004.65
2018-06-02T03:49:23.897Z,1004.65
2018-06-02T03:50:23.865Z,1004.69
2018-06-02T03:51:23.841Z,1004.68
2018-06-02T03:52:23.824Z,1004.66
2018-06-02T03:53:23.791Z,1004.70
2018-06-02T03:54:23.772Z,1004.67
2018-06-02T03:55:23.744Z,1004.69
2018-06-02T03:56:23.717Z,1004.75
2018-06-02T03:57:23.699Z,1004.72
2018-06-02T03:58:23.669Z,1004.74
2018-06-02T03:59:23.644Z,1004.73
2018-06-02T04:00:23.624Z,1004.67
2018-06-02T04:01:23.595Z,1004.65
2018-06-02T04:02:23.575Z,1004.66
2018-06-02T04:03:23.547Z,1004.71
2018-06-02T04:04:23.522Z,1004.73
2018-06-02T04:05:23.494Z,1004.72
2018-06-02T04:06:23.477Z,1004.74
2018-06-02T04:07:23.447Z,1004.77
2018-06-02T04:08:23.427Z,1004.75
2018-06-02T04:09:23.404Z,1004.75
2018-06-02T04:10:23.373Z,1004.69
2018-06-02T04:11:23.355Z,1004.72
2018-06-02T04:12:23.324Z,1004.73
2018-06-02T04:13:23.309Z,1004.71
2018-06-02T04:14:23.287Z,1004.73
2018-06-02T04:15:23.251Z,1004.70
2018-06-02T04:16:23.235Z,1004.76
2018-06-02T04:17:23.204Z,1004.74
2018-06-02T04:18:23.179Z,1004.74
2018-06-02T04:19:23.160Z,1004.74
2018-06-02T04:20:23.124Z,1004.73
2018-06-02T04:21:23.104Z,1004.78
2018-06-02T04:22:23.086Z,1004.76
2018-06-02T04:23:23.055Z,1004.80
2018-06-02T04:24:23.039Z,1004.75
2018-06-02T04:25:23.016Z,1004.78
2018-06-02T04:26:22.985Z,1004.77
2018-06-02T04:27:22.957Z,1004.76
2018-06-02T04:28:22.939Z,1004.76
2018-06-02T04:29:22.910Z,1004.78
2018-06-02T04:30:22.892Z,1004.81
2018-06-02T04:31:22.865Z,1004.79
2018-06-02T04:32:22.841Z,1004.78
2018-06-02T04:33:22.809Z,1004.82
2018-06-02T04:34:22.797Z,1004.83
2018-06-02T04:35:22.772Z,1004.84
2018-06-02T04:36:23.374Z,1004.87
2018-06-02T04:37:22.715Z,1004.84
2018-06-02T04:38:22.691Z,1004.83
2018-06-02T04:39:22.666Z,1004.83
2018-06-02T04:40:22.642Z,1004.88
2018-06-02T04:41:22.617Z,1004.80
2018-06-02T04:42:22.594Z,1004.82
2018-06-02T04:43:22.620Z,1004.83
2018-06-02T04:44:22.544Z,1004.84
2018-06-02T04:45:22.516Z,1004.86
2018-06-02T04:46:22.489Z,1004.83
2018-06-02T04:47:22.476Z,1004.87
2018-06-02T04:48:22.459Z,1004.90
2018-06-02T04:49:22.433Z,1004.90
2018-06-02T04:50:22.397Z,1004.93
2018-06-02T04:51:22.377Z,1004.93
2018-06-02T04:52:22.348Z,1004.89
2018-06-02T04:53:22.331Z,1004.90
2018-06-02T04:54:22.298Z,1004.93
2018-06-02T04:55:22.279Z,1004.91
2018-06-02T04:56:22.256Z,1004.94
2018-06-02T04:57:22.226Z,1004.94
2018-06-02T04:58:22.216Z,1004.95
2018-06-02T04:59:22.174Z,1004.96
2018-06-02T05:00:22.165Z,1004.95
2018-06-02T05:01:22.124Z,1004.95
2018-06-02T05:02:22.111Z,1004.95
2018-06-02T05:03:22.083Z,1004.96
2018-06-02T05:04:22.063Z,1005.00
2018-06-02T05:05:22.032Z,1004.96
2018-06-02T05:06:22.014Z,1004.99
2018-06-02T05:07:21.985Z,1004.98
2018-06-02T05:08:21.961Z,1005.00
2018-06-02T05:09:21.931Z,1005.01
2018-06-02T05:10:21.915Z,1004.92
2018-06-02T05:11:21.886Z,1004.99
2018-06-02T05:12:21.863Z,1004.91
2018-06-02T05:13:21.861Z,1004.94
2018-06-02T05:14:21.824Z,1004.95
2018-06-02T05:15:21.793Z,1004.98
2018-06-02T05:16:21.762Z,1004.97
2018-06-02T05:17:22.446Z,1004.99
2018-06-02T05:18:21.716Z,1004.97
2018-06-02T05:19:21.705Z,1005.03
2018-06-02T05:20:21.671Z,1005.02
2018-06-02T05:21:21.649Z,1005.01
2018-06-02T05:22:21.618Z,1005.07
2018-06-02T05:23:21.601Z,1005.06
2018-06-02T05:24:21.563Z,1005.07
2018-06-02T05:25:21.543Z,1005.05
2018-06-02T05:26:21.521Z,1005.04
2018-06-02T05:27:21.497Z,1005.08
2018-06-02T05:28:21.480Z,1005.08
2018-06-02T05:29:21.449Z,1005.09
2018-06-02T05:30:21.420Z,1005.06
2018-06-02T05:31:21.399Z,1005.08
2018-06-02T05:32:21.380Z,1005.13
2018-06-02T05:33:21.350Z,1005.10
2018-06-02T05:34:21.329Z,1005.13
2018-06-02T05:35:21.358Z,1005.13
2018-06-02T05:36:21.273Z,1005.17
2018-06-02T05:37:21.255Z,1005.18
2018-06-02T05:38:21.225Z,1005.17
2018-06-02T05:39:21.204Z,1005.19
2018-06-02T05:40:21.175Z,1005.24
2018-06-02T05:41:21.155Z,1005.21
2018-06-02T05:42:21.130Z,1005.21
2018-06-02T05:43:21.105Z,1005.22
2018-06-02T05:44:21.081Z,1005.25
2018-06-02T05:45:21.056Z,1005.24
2018-06-02T05:46:21.033Z,1005.25
2018-06-02T05:47:21.009Z,1005.27
2018-06-02T05:48:20.984Z,1005.26
2018-06-02T05:49:20.968Z,1005.28
2018-06-02T05:50:20.935Z,1005.33
2018-06-02T05:51:20.919Z,1005.32
2018-06-02T05:52:20.884Z,1005.32
2018-06-02T05:53:20.866Z,1005.32
2018-06-02T05:54:20.840Z,1005.33
2018-06-02T05:55:20.819Z,1005.29
2018-06-02T05:56:20.785Z,1005.29
2018-06-02T05:57:20.772Z,1005.27
2018-06-02T05:58:20.739Z,1005.28
2018-06-02T05:59:20.730Z,1005.25
2018-06-02T06:00:20.694Z,1005.28
2018-06-02T06:01:20.665Z,1005.26
2018-06-02T06:02:20.657Z,1005.28
2018-06-02T06:03:20.628Z,1005.25
2018-06-02T06:04:20.603Z,1005.19
2018-06-02T06:05:20.587Z,1005.29
2018-06-02T06:06:20.547Z,1005.28
2018-06-02T06:07:20.527Z,1005.29
2018-06-02T06:08:20.509Z,1005.28
2018-06-02T06:09:20.479Z,1005.30
2018-06-02T06:10:20.452Z,1005.27
2018-06-02T06:11:20.426Z,1005.31
2018-06-02T06:12:20.398Z,1005.26
2018-06-02T06:13:20.375Z,1005.27
2018-06-02T06:14:20.348Z,1005.27
2018-06-02T06:15:20.331Z,1005.24
2018-06-02T06:16:20.311Z,1005.27
2018-06-02T06:17:20.283Z,1005.24
2018-06-02T06:18:20.254Z,1005.29
2018-06-02T06:19:20.228Z,1005.25
2018-06-02T06:20:20.206Z,1005.27
2018-06-02T06:21:20.187Z,1005.26
2018-06-02T06:22:20.155Z,1005.22
2018-06-02T06:23:20.133Z,1005.25
2018-06-02T06:24:20.117Z,1005.29
2018-06-02T06:25:20.092Z,1005.26
2018-06-02T06:26:20.064Z,1005.28
2018-06-02T06:27:20.062Z,1005.25
2018-06-02T06:28:20.024Z,1005.32
2018-06-02T06:29:20.009Z,1005.24
2018-06-02T06:30:19.961Z,1005.31
2018-06-02T06:31:19.938Z,1005.30
2018-06-02T06:32:19.911Z,1005.27
2018-06-02T06:33:19.889Z,1005.27
2018-06-02T06:34:19.868Z,1005.26
2018-06-02T06:35:19.840Z,1005.23
2018-06-02T06:36:19.819Z,1005.26
2018-06-02T06:37:19.793Z,1005.26
2018-06-02T06:38:19.776Z,1005.27
2018-06-02T06:39:19.740Z,1005.26
2018-06-02T06:40:19.719Z,1005.32
2018-06-02T06:41:19.697Z,1005.28
2018-06-02T06:42:19.676Z,1005.31
2018-06-02T06:43:19.654Z,1005.27
2018-06-02T06:44:19.630Z,1005.30
2018-06-02T06:45:19.614Z,1005.30
2018-06-02T06:46:19.590Z,1005.26
2018-06-02T06:47:19.557Z,1005.26
2018-06-02T06:48:19.525Z,1005.27
2018-06-02T06:49:19.511Z,1005.28
2018-06-02T06:50:19.478Z,1005.31
2018-06-02T06:51:19.459Z,1005.25
2018-06-02T06:52:19.426Z,1005.34
2018-06-02T06:53:19.408Z,1005.38
2018-06-02T06:54:19.381Z,1005.30
2018-06-02T06:55:19.354Z,1005.35
2018-06-02T06:56:19.330Z,1005.35
2018-06-02T06:57:19.310Z,1005.34
2018-06-02T06:58:19.285Z,1005.35
2018-06-02T06:59:19.270Z,1005.36
2018-06-02T07:00:19.237Z,1005.36
2018-06-02T07:01:19.208Z,1005.38
2018-06-02T07:02:19.191Z,1005.39
2018-06-02T07:03:19.168Z,1005.40
2018-06-02T07:04:19.141Z,1005.38
2018-06-02T07:05:19.117Z,1005.41
2018-06-02T07:06:19.157Z,1005.41
2018-06-02T07:07:19.065Z,1005.39
2018-06-02T07:08:19.046Z,1005.38
2018-06-02T07:09:19.021Z,1005.39
2018-06-02T07:10:18.995Z,1005.37
2018-06-02T07:11:18.975Z,1005.37
2018-06-02T07:12:18.942Z,1005.35
2018-06-02T07:13:18.919Z,1005.37
2018-06-02T07:14:18.902Z,1005.40
2018-06-02T07:15:18.886Z,1005.38
2018-06-02T07:16:18.856Z,1005.37
2018-06-02T07:17:18.823Z,1005.35
2018-06-02T07:18:18.806Z,1005.35
2018-06-02T07:19:18.796Z,1005.40
2018-06-02T07:20:18.753Z,1005.37
2018-06-02T07:21:18.734Z,1005.41
2018-06-02T07:22:18.707Z,1005.38
2018-06-02T07:23:18.694Z,1005.39
2018-06-02T07:24:18.660Z,1005.40
2018-06-02T07:25:18.638Z,1005.42
2018-06-02T07:26:18.613Z,1005.37
2018-06-02T07:27:18.589Z,1005.39
2018-06-02T07:28:18.560Z,1005.34
2018-06-02T07:29:18.543Z,1005.36
2018-06-02T07:30:18.515Z,1005.32
2018-06-02T07:31:18.504Z,1005.38
2018-06-02T07:32:18.479Z,1005.37
2018-06-02T07:33:18.457Z,1005.33
2018-06-02T07:34:18.416Z,1005.37
2018-06-02T07:35:18.412Z,1005.33
2018-06-02T07:36:18.375Z,1005.37
2018-06-02T07:37:18.346Z,1005.34
2018-06-02T07:38:18.357Z,1005.35
2018-06-02T07:39:18.298Z,1005.33
2018-06-02T07:40:18.279Z,1005.35
2018-06-02T07:41:18.256Z,1005.34
2018-06-02T07:42:18.228Z,1005.35
2018-06-02T07:43:18.216Z,1005.34
2018-06-02T07:44:18.189Z,1005.35
2018-06-02T07:45:18.152Z,1005.33
2018-06-02T07:46:18.136Z,1005.35
2018-06-02T07:47:18.116Z,1005.35
2018-06-02T07:48:18.082Z,1005.39
2018-06-02T07:49:18.065Z,1005.35
2018-06-02T07:50:18.034Z,1005.35
2018-06-02T07:51:18.012Z,1005.33
2018-06-02T07:52:17.991Z,1005.35
2018-06-02T07:53:17.971Z,1005.33
2018-06-02T07:54:17.942Z,1005.34
2018-06-02T07:55:17.959Z,1005.33
2018-06-02T07:56:17.895Z,1005.39
2018-06-02T07:57:17.882Z,1005.33
2018-06-02T07:58:17.840Z,1005.37
2018-06-02T07:59:17.825Z,1005.41
2018-06-02T08:00:17.800Z,1005.37
2018-06-02T08:01:17.774Z,1005.35
2018-06-02T08:02:17.756Z,1005.36
2018-06-02T08:03:17.730Z,1005.36
2018-06-02T08:04:17.702Z,1005.38
2018-06-02T08:05:17.677Z,1005.37
2018-06-02T08:06:17.656Z,1005.42
2018-06-02T08:07:17.635Z,1005.40
2018-06-02T08:08:17.610Z,1005.36
2018-06-02T08:09:17.583Z,1005.35
2018-06-02T08:10:17.572Z,1005.36
2018-06-02T08:11:17.544Z,1005.43
2018-06-02T08:12:17.511Z,1005.45
2018-06-02T08:13:17.495Z,1005.46
2018-06-02T08:14:17.463Z,1005.43
2018-06-02T08:15:17.443Z,1005.47
2018-06-02T08:16:17.420Z,1005.43
2018-06-02T08:17:17.395Z,1005.40
2018-06-02T08:18:17.369Z,1005.41
2018-06-02T08:19:17.345Z,1005.43
2018-06-02T08:20:17.318Z,1005.45
2018-06-02T08:21:17.296Z,1005.46
2018-06-02T08:22:17.270Z,1005.45
2018-06-02T08:23:17.247Z,1005.46
2018-06-02T08:24:17.247Z,1005.41
2018-06-02T08:25:17.202Z,1005.40
2018-06-02T08:26:17.183Z,1005.42
2018-06-02T08:27:17.161Z,1005.45
2018-06-02T08:28:17.132Z,1005.47
2018-06-02T08:29:17.102Z,1005.44
2018-06-02T08:30:17.087Z,1005.47
2018-06-02T08:31:17.062Z,1005.46
2018-06-02T08:32:17.076Z,1005.54
2018-06-02T08:33:17.014Z,1005.50
2018-06-02T08:34:16.990Z,1005.46
2018-06-02T08:35:16.971Z,1005.46
2018-06-02T08:36:16.946Z,1005.45
2018-06-02T08:37:16.912Z,1005.49
2018-06-02T08:38:16.896Z,1005.42
2018-06-02T08:39:16.873Z,1005.53
2018-06-02T08:40:16.843Z,1005.46
2018-06-02T08:41:16.825Z,1005.58
2018-06-02T08:42:16.796Z,1005.48
2018-06-02T08:43:16.771Z,1005.52
2018-06-02T08:44:16.749Z,1005.50
2018-06-02T08:45:16.727Z,1005.58
2018-06-02T08:46:16.698Z,1005.54
2018-06-02T08:47:16.680Z,1005.56
2018-06-02T08:48:16.658Z,1005.54
2018-06-02T08:49:16.627Z,1005.53
2018-06-02T08:50:16.608Z,1005.52
2018-06-02T08:51:16.585Z,1005.56
2018-06-02T08:52:16.552Z,1005.57
2018-06-02T08:53:16.531Z,1005.58
2018-06-02T08:54:16.511Z,1005.58
2018-06-02T08:55:16.481Z,1005.58
2018-06-02T08:56:16.467Z,1005.57
2018-06-02T08:57:16.441Z,1005.59
2018-06-02T08:58:16.411Z,1005.59
2018-06-02T08:59:16.394Z,1005.65
2018-06-02T09:00:16.371Z,1005.64
2018-06-02T09:01:16.345Z,1005.62
2018-06-02T09:02:16.318Z,1005.65
2018-06-02T09:03:16.312Z,1005.64
2018-06-02T09:04:16.296Z,1005.67
2018-06-02T09:05:16.264Z,1005.62
2018-06-02T09:06:16.237Z,1005.62
2018-06-02T09:07:16.195Z,1005.60
2018-06-02T09:08:16.194Z,1005.60
2018-06-02T09:09:16.169Z,1005.65
2018-06-02T09:10:16.142Z,1005.64
2018-06-02T09:11:16.127Z,1005.65
2018-06-02T09:12:16.117Z,1005.63
2018-06-02T09:13:16.093Z,1005.67
2018-06-02T09:14:16.051Z,1005.64
2018-06-02T09:15:16.021Z,1005.68
2018-06-02T09:16:15.983Z,1005.68
2018-06-02T09:17:16.002Z,1005.65
2018-06-02T09:18:15.934Z,1005.67
2018-06-02T09:19:15.909Z,1005.68
2018-06-02T09:20:15.891Z,1005.74
2018-06-02T09:21:15.860Z,1005.69
2018-06-02T09:22:15.841Z,1005.74
2018-06-02T09:23:15.814Z,1005.68
2018-06-02T09:24:15.785Z,1005.71
2018-06-02T09:25:15.770Z,1005.66
2018-06-02T09:26:15.739Z,1005.71
2018-06-02T09:27:15.715Z,1005.70
2018-06-02T09:28:15.702Z,1005.74
2018-06-02T09:29:15.670Z,1005.74
2018-06-02T09:30:16.506Z,1005.77
2018-06-02T09:31:15.624Z,1005.73
2018-06-02T09:32:15.602Z,1005.72
2018-06-02T09:33:15.572Z,1005.69
2018-06-02T09:34:15.557Z,1005.66
2018-06-02T09:35:15.593Z,1005.68
2018-06-02T09:36:15.507Z,1005.71
2018-06-02T09:37:15.478Z,1005.72
2018-06-02T09:38:15.460Z,1005.75
2018-06-02T09:39:15.436Z,1005.77
2018-06-02T09:40:15.407Z,1005.80
2018-06-02T09:41:15.385Z,1005.74
2018-06-02T09:42:15.369Z,1005.74
2018-06-02T09:43:15.336Z,1005.75
2018-06-02T09:44:15.318Z,1005.84
2018-06-02T09:45:15.298Z,1005.70
2018-06-02T09:46:15.266Z,1005.73
2018-06-02T09:47:15.248Z,1005.72
2018-06-02T09:48:15.217Z,1005.77
2018-06-02T09:49:15.196Z,1005.77
2018-06-02T09:50:15.179Z,1005.81
2018-06-02T09:51:15.147Z,1005.76
2018-06-02T09:52:15.131Z,1005.72
2018-06-02T09:53:15.106Z,1005.75
2018-06-02T09:54:15.081Z,1005.78
2018-06-02T09:55:15.064Z,1005.79
2018-06-02T09:56:15.033Z,1005.79
2018-06-02T09:57:15.014Z,1005.77
2018-06-02T09:58:14.993Z,1005.75
2018-06-02T09:59:14.960Z,1005.78
2018-06-02T10:00:14.947Z,1005.78
2018-06-02T10:01:14.918Z,1005.80
2018-06-02T10:02:14.890Z,1005.77
2018-06-02T10:03:14.877Z,1005.81
2018-06-02T10:04:14.843Z,1005.79
2018-06-02T10:05:14.820Z,1005.84
2018-06-02T10:06:14.801Z,1005.82
2018-06-02T10:07:14.772Z,1005.86
2018-06-02T10:08:14.754Z,1005.84
2018-06-02T10:09:14.733Z,1005.86
2018-06-02T10:10:14.702Z,1005.84
2018-06-02T10:11:14.685Z,1005.87
2018-06-02T10:12:14.674Z,1005.83
2018-06-02T10:13:14.631Z,1005.81
2018-06-02T10:14:14.614Z,1005.85
2018-06-02T10:15:14.590Z,1005.84
2018-06-02T10:16:14.562Z,1005.85
2018-06-02T10:17:14.547Z,1005.84
2018-06-02T10:18:14.520Z,1005.86
2018-06-02T10:19:14.498Z,1005.82
2018-06-02T10:20:14.477Z,1005.83
2018-06-02T10:21:14.456Z,1005.81
2018-06-02T10:22:14.422Z,1005.84
2018-06-02T10:23:14.424Z,1005.85
2018-06-02T10:24:14.383Z,1005.88
2018-06-02T10:25:14.356Z,1005.87
2018-06-02T10:26:14.342Z,1005.92
2018-06-02T10:27:15.014Z,1005.92
2018-06-02T10:28:14.287Z,1005.90
2018-06-02T10:29:14.268Z,1005.97
2018-06-02T10:30:14.241Z,1005.95
2018-06-02T10:31:14.216Z,1006.04
2018-06-02T10:32:14.205Z,1005.94
2018-06-02T10:33:14.183Z,1005.94
2018-06-02T10:34:14.156Z,1005.98
2018-06-02T10:35:14.126Z,1005.98
2018-06-02T10:36:14.112Z,1005.96
2018-06-02T10:37:14.084Z,1005.96
2018-06-02T10:38:14.059Z,1005.99
2018-06-02T10:39:14.048Z,1005.96
2018-06-02T10:40:14.009Z,1005.93
2018-06-02T10:41:13.994Z,1005.96
2018-06-02T10:42:13.977Z,1005.95
2018-06-02T10:43:13.949Z,1005.97
2018-06-02T10:44:13.929Z,1005.95
2018-06-02T10:45:13.909Z,1005.95
2018-06-02T10:46:13.873Z,1005.96
2018-06-02T10:47:13.858Z,1005.98
2018-06-02T10:48:13.825Z,1006.01
2018-06-02T10:49:13.810Z,1006.02
2018-06-02T10:50:13.788Z,1005.94
2018-06-02T10:51:13.808Z,1006.02
2018-06-02T10:52:13.736Z,1006.00
2018-06-02T10:53:13.719Z,1005.98
2018-06-02T10:54:13.689Z,1005.95
2018-06-02T10:55:13.670Z,1005.97
2018-06-02T10:56:13.638Z,1006.03
2018-06-02T10:57:13.615Z,1006.01
2018-06-02T10:58:13.604Z,1006.01
2018-06-02T10:59:13.579Z,1005.99
2018-06-02T11:00:13.551Z,1005.98
2018-06-02T11:01:13.534Z,1006.01
2018-06-02T11:02:13.498Z,1006.00
2018-06-02T11:03:13.482Z,1005.98
2018-06-02T11:04:13.456Z,1005.98
2018-06-02T11:05:13.437Z,1005.97
2018-06-02T11:06:13.426Z,1005.96
2018-06-02T11:07:13.385Z,1006.00
2018-06-02T11:08:13.381Z,1005.96
2018-06-02T11:09:13.343Z,1005.96
2018-06-02T11:10:13.325Z,1005.96
2018-06-02T11:11:13.299Z,1005.95
2018-06-02T11:12:13.268Z,1005.94
2018-06-02T11:13:13.254Z,1005.95
2018-06-02T11:14:13.221Z,1005.89
2018-06-02T11:15:13.204Z,1005.91
2018-06-02T11:16:13.188Z,1005.92
2018-06-02T11:17:13.165Z,1005.91
2018-06-02T11:18:13.138Z,1005.91
2018-06-02T11:19:13.115Z,1005.89
2018-06-02T11:20:13.085Z,1005.93
2018-06-02T11:21:13.069Z,1005.93
2018-06-02T11:22:13.044Z,1005.88
2018-06-02T11:23:13.027Z,1005.91
2018-06-02T11:24:12.987Z,1005.89
2018-06-02T11:25:12.992Z,1005.95
2018-06-02T11:26:12.949Z,1005.91
2018-06-02T11:27:12.928Z,1005.91
2018-06-02T11:28:12.904Z,1005.91
2018-06-02T11:29:12.880Z,1005.85
2018-06-02T11:30:12.855Z,1005.85
2018-06-02T11:31:12.832Z,1005.85
2018-06-02T11:32:12.804Z,1005.88
2018-06-02T11:33:12.791Z,1005.90
2018-06-02T11:34:12.761Z,1005.87
2018-06-02T11:35:12.738Z,1005.90
2018-06-02T11:36:12.727Z,1005.91
2018-06-02T11:37:12.697Z,1005.89
2018-06-02T11:38:12.677Z,1005.94
2018-06-02T11:39:12.647Z,1005.92
2018-06-02T11:40:12.631Z,1005.91
2018-06-02T11:41:12.595Z,1005.92
2018-06-02T11:42:12.585Z,1005.89
2018-06-02T11:43:12.560Z,1005.91
2018-06-02T11:44:12.594Z,1005.90
2018-06-02T11:45:12.515Z,1005.95
2018-06-02T11:46:12.483Z,1005.92
2018-06-02T11:47:12.505Z,1005.92
2018-06-02T11:48:12.445Z,1005.91
2018-06-02T11:49:12.420Z,1005.91
2018-06-02T11:50:12.396Z,1005.92
2018-06-02T11:51:12.382Z,1005.91
2018-06-02T11:52:12.345Z,1005.90
2018-06-02T11:53:12.345Z,1005.93
2018-06-02T11:54:12.315Z,1005.89
2018-06-02T11:55:12.286Z,1005.92
2018-06-02T11:56:12.255Z,1005.90
2018-06-02T11:57:12.239Z,1005.94
2018-06-02T11:58:12.221Z,1005.93
2018-06-02T11:59:12.207Z,1005.92
2018-06-02T12:00:12.172Z,1005.95
2018-06-02T12:01:12.149Z,1005.91
2018-06-02T12:02:12.120Z,1005.99
2018-06-02T12:03:12.108Z,1005.98
2018-06-02T12:04:12.084Z,1005.96
2018-06-02T12:05:12.060Z,1005.94